sensor_id;sensor_type;location;lat;lon;timestamp;P1;durP1;ratioP1;P2;durP2;ratioP2
62880;SDS011;48969;49.934;8.596;2023-05-29T00:01:46;7.50;;;4.70;;
62880;SDS011;48969;49.934;8.596;2023-05-29T00:04:12;6.72;;;4.90;;
62880;SDS011;48969;49.934;8.596;2023-05-29T00:06:37;8.65;;;4.82;;
62880;SDS011;48969;49.934;8.596;2023-05-29T00:09:03;9.48;;;4.72;;
62880;SDS011;48969;49.934;8.596;2023-05-29T00:11:29;6.30;;;4.30;;
62880;SDS011;48969;49.934;8.596;2023-05-29T00:13:54;6.60;;;4.75;;
62880;SDS011;48969;49.934;8.596;2023-05-29T00:16:21;7.93;;;4.53;;
62880;SDS011;48969;49.934;8.596;2023-05-29T00:18:48;8.45;;;4.68;;
62880;SDS011;48969;49.934;8.596;2023-05-29T00:21:13;8.68;;;5.07;;
62880;SDS011;48969;49.934;8.596;2023-05-29T00:23:39;7.25;;;4.53;;
62880;SDS011;48969;49.934;8.596;2023-05-29T00:26:05;6.93;;;4.82;;
62880;SDS011;48969;49.934;8.596;2023-05-29T00:28:31;7.00;;;4.85;;
62880;SDS011;48969;49.934;8.596;2023-05-29T00:30:56;9.45;;;5.05;;
62880;SDS011;48969;49.934;8.596;2023-05-29T00:33:21;6.88;;;4.55;;
62880;SDS011;48969;49.934;8.596;2023-05-29T00:35:47;6.78;;;4.72;;
62880;SDS011;48969;49.934;8.596;2023-05-29T00:38:12;7.30;;;4.78;;
62880;SDS011;48969;49.934;8.596;2023-05-29T00:40:39;8.10;;;5.32;;
62880;SDS011;48969;49.934;8.596;2023-05-29T00:43:04;8.68;;;5.07;;
62880;SDS011;48969;49.934;8.596;2023-05-29T00:45:30;5.53;;;4.63;;
62880;SDS011;48969;49.934;8.596;2023-05-29T00:47:56;8.13;;;4.82;;
62880;SDS011;48969;49.934;8.596;2023-05-29T00:50:22;8.07;;;4.95;;
62880;SDS011;48969;49.934;8.596;2023-05-29T00:52:48;6.43;;;4.70;;
62880;SDS011;48969;49.934;8.596;2023-05-29T00:55:14;5.82;;;4.90;;
62880;SDS011;48969;49.934;8.596;2023-05-29T00:57:41;7.43;;;4.90;;
62880;SDS011;48969;49.934;8.596;2023-05-29T01:00:06;6.95;;;4.93;;
62880;SDS011;48969;49.934;8.596;2023-05-29T01:02:38;8.38;;;4.95;;
62880;SDS011;48969;49.934;8.596;2023-05-29T01:05:05;7.22;;;4.80;;
62880;SDS011;48969;49.934;8.596;2023-05-29T01:07:32;7.80;;;5.18;;
62880;SDS011;48969;49.934;8.596;2023-05-29T01:09:58;7.47;;;4.95;;
62880;SDS011;48969;49.934;8.596;2023-05-29T01:18:12;6.45;;;4.28;;
62880;SDS011;48969;49.934;8.596;2023-05-29T01:28:48;6.55;;;4.63;;
62880;SDS011;48969;49.934;8.596;2023-05-29T01:31:17;6.35;;;4.60;;
62880;SDS011;48969;49.934;8.596;2023-05-29T01:33:51;8.48;;;5.10;;
62880;SDS011;48969;49.934;8.596;2023-05-29T01:36:20;8.25;;;5.22;;
62880;SDS011;48969;49.934;8.596;2023-05-29T01:38:46;8.23;;;5.47;;
62880;SDS011;48969;49.934;8.596;2023-05-29T01:41:12;8.57;;;4.95;;
62880;SDS011;48969;49.934;8.596;2023-05-29T01:43:37;9.13;;;5.00;;
62880;SDS011;48969;49.934;8.596;2023-05-29T01:46:03;7.03;;;5.00;;
62880;SDS011;48969;49.934;8.596;2023-05-29T01:48:29;7.00;;;5.00;;
62880;SDS011;48969;49.934;8.596;2023-05-29T01:50:55;7.93;;;4.85;;
62880;SDS011;48969;49.934;8.596;2023-05-29T01:53:22;9.63;;;5.32;;
62880;SDS011;48969;49.934;8.596;2023-05-29T01:55:48;8.57;;;5.00;;
62880;SDS011;48969;49.934;8.596;2023-05-29T01:58:13;7.30;;;5.20;;
62880;SDS011;48969;49.934;8.596;2023-05-29T02:00:39;8.68;;;4.55;;
62880;SDS011;48969;49.934;8.596;2023-05-29T02:03:05;8.02;;;5.38;;
62880;SDS011;48969;49.934;8.596;2023-05-29T02:05:30;6.85;;;5.00;;
62880;SDS011;48969;49.934;8.596;2023-05-29T02:07:55;8.00;;;5.20;;
62880;SDS011;48969;49.934;8.596;2023-05-29T02:10:21;7.05;;;5.00;;
62880;SDS011;48969;49.934;8.596;2023-05-29T02:12:46;8.60;;;4.90;;
62880;SDS011;48969;49.934;8.596;2023-05-29T02:15:11;7.07;;;4.95;;
62880;SDS011;48969;49.934;8.596;2023-05-29T02:17:36;6.88;;;4.88;;
62880;SDS011;48969;49.934;8.596;2023-05-29T02:20:02;7.35;;;5.10;;
62880;SDS011;48969;49.934;8.596;2023-05-29T02:22:29;7.25;;;5.18;;
62880;SDS011;48969;49.934;8.596;2023-05-29T02:24:54;7.35;;;4.65;;
62880;SDS011;48969;49.934;8.596;2023-05-29T02:27:20;7.93;;;4.97;;
62880;SDS011;48969;49.934;8.596;2023-05-29T02:29:45;7.03;;;4.90;;
62880;SDS011;48969;49.934;8.596;2023-05-29T02:32:11;7.60;;;5.03;;
62880;SDS011;48969;49.934;8.596;2023-05-29T02:34:36;7.65;;;4.82;;
62880;SDS011;48969;49.934;8.596;2023-05-29T02:37:02;9.45;;;5.10;;
62880;SDS011;48969;49.934;8.596;2023-05-29T02:39:28;8.20;;;5.28;;
62880;SDS011;48969;49.934;8.596;2023-05-29T02:41:53;8.45;;;4.53;;
62880;SDS011;48969;49.934;8.596;2023-05-29T02:44:19;10.15;;;5.05;;
62880;SDS011;48969;49.934;8.596;2023-05-29T02:46:45;6.43;;;4.65;;
62880;SDS011;48969;49.934;8.596;2023-05-29T02:49:10;8.10;;;5.10;;
62880;SDS011;48969;49.934;8.596;2023-05-29T02:51:35;7.22;;;4.72;;
62880;SDS011;48969;49.934;8.596;2023-05-29T02:54:02;9.10;;;5.00;;
62880;SDS011;48969;49.934;8.596;2023-05-29T02:56:27;6.80;;;4.72;;
62880;SDS011;48969;49.934;8.596;2023-05-29T02:58:53;9.05;;;5.10;;
62880;SDS011;48969;49.934;8.596;2023-05-29T03:01:18;6.70;;;5.03;;
62880;SDS011;48969;49.934;8.596;2023-05-29T03:03:44;6.88;;;4.68;;
62880;SDS011;48969;49.934;8.596;2023-05-29T03:06:09;9.15;;;5.28;;
62880;SDS011;48969;49.934;8.596;2023-05-29T03:08:35;9.02;;;5.53;;
62880;SDS011;48969;49.934;8.596;2023-05-29T03:11:00;8.35;;;4.68;;
62880;SDS011;48969;49.934;8.596;2023-05-29T03:13:25;7.57;;;5.03;;
62880;SDS011;48969;49.934;8.596;2023-05-29T03:15:52;7.82;;;4.68;;
62880;SDS011;48969;49.934;8.596;2023-05-29T03:18:21;7.25;;;4.63;;
62880;SDS011;48969;49.934;8.596;2023-05-29T03:20:47;9.20;;;5.00;;
62880;SDS011;48969;49.934;8.596;2023-05-29T03:23:12;9.18;;;5.03;;
62880;SDS011;48969;49.934;8.596;2023-05-29T03:25:38;7.75;;;5.20;;
62880;SDS011;48969;49.934;8.596;2023-05-29T03:28:03;7.05;;;5.13;;
62880;SDS011;48969;49.934;8.596;2023-05-29T03:30:28;6.78;;;4.53;;
62880;SDS011;48969;49.934;8.596;2023-05-29T03:32:54;6.93;;;4.82;;
62880;SDS011;48969;49.934;8.596;2023-05-29T03:35:19;8.68;;;4.95;;
62880;SDS011;48969;49.934;8.596;2023-05-29T03:37:44;6.80;;;4.65;;
62880;SDS011;48969;49.934;8.596;2023-05-29T03:40:10;6.28;;;4.75;;
62880;SDS011;48969;49.934;8.596;2023-05-29T03:42:36;7.40;;;4.93;;
62880;SDS011;48969;49.934;8.596;2023-05-29T03:45:01;6.85;;;4.88;;
62880;SDS011;48969;49.934;8.596;2023-05-29T03:47:26;7.72;;;4.78;;
62880;SDS011;48969;49.934;8.596;2023-05-29T03:49:51;9.65;;;5.05;;
62880;SDS011;48969;49.934;8.596;2023-05-29T03:52:17;7.35;;;5.00;;
62880;SDS011;48969;49.934;8.596;2023-05-29T03:54:42;8.27;;;4.82;;
62880;SDS011;48969;49.934;8.596;2023-05-29T03:57:09;8.80;;;4.88;;
62880;SDS011;48969;49.934;8.596;2023-05-29T03:59:35;7.78;;;4.78;;
62880;SDS011;48969;49.934;8.596;2023-05-29T04:02:00;8.70;;;4.60;;
62880;SDS011;48969;49.934;8.596;2023-05-29T04:04:25;8.80;;;4.50;;
62880;SDS011;48969;49.934;8.596;2023-05-29T04:06:51;7.32;;;4.90;;
62880;SDS011;48969;49.934;8.596;2023-05-29T04:09:17;8.10;;;4.97;;
62880;SDS011;48969;49.934;8.596;2023-05-29T04:11:43;8.20;;;5.00;;
62880;SDS011;48969;49.934;8.596;2023-05-29T04:14:09;7.32;;;4.75;;
62880;SDS011;48969;49.934;8.596;2023-05-29T04:16:34;9.55;;;5.32;;
62880;SDS011;48969;49.934;8.596;2023-05-29T04:19:00;10.75;;;5.50;;
62880;SDS011;48969;49.934;8.596;2023-05-29T04:21:25;7.38;;;5.07;;
62880;SDS011;48969;49.934;8.596;2023-05-29T04:23:51;7.15;;;4.55;;
62880;SDS011;48969;49.934;8.596;2023-05-29T04:26:17;7.43;;;4.90;;
62880;SDS011;48969;49.934;8.596;2023-05-29T04:28:42;10.70;;;5.63;;
62880;SDS011;48969;49.934;8.596;2023-05-29T04:31:08;7.43;;;4.90;;
62880;SDS011;48969;49.934;8.596;2023-05-29T04:33:39;8.32;;;5.35;;
62880;SDS011;48969;49.934;8.596;2023-05-29T04:36:05;10.02;;;5.07;;
62880;SDS011;48969;49.934;8.596;2023-05-29T04:38:30;7.88;;;4.93;;
62880;SDS011;48969;49.934;8.596;2023-05-29T04:40:56;7.45;;;5.28;;
62880;SDS011;48969;49.934;8.596;2023-05-29T04:43:33;8.90;;;5.22;;
62880;SDS011;48969;49.934;8.596;2023-05-29T04:46:01;13.50;;;5.47;;
62880;SDS011;48969;49.934;8.596;2023-05-29T04:48:28;8.32;;;5.15;;
62880;SDS011;48969;49.934;8.596;2023-05-29T04:50:53;10.20;;;4.88;;
62880;SDS011;48969;49.934;8.596;2023-05-29T04:53:18;9.02;;;5.40;;
62880;SDS011;48969;49.934;8.596;2023-05-29T04:55:43;11.85;;;5.60;;
62880;SDS011;48969;49.934;8.596;2023-05-29T04:58:09;8.40;;;5.10;;
62880;SDS011;48969;49.934;8.596;2023-05-29T05:00:36;7.57;;;4.93;;
62880;SDS011;48969;49.934;8.596;2023-05-29T05:03:02;9.68;;;5.60;;
62880;SDS011;48969;49.934;8.596;2023-05-29T05:05:27;9.27;;;5.30;;
62880;SDS011;48969;49.934;8.596;2023-05-29T05:07:52;7.45;;;5.05;;
62880;SDS011;48969;49.934;8.596;2023-05-29T05:10:18;11.35;;;5.43;;
62880;SDS011;48969;49.934;8.596;2023-05-29T05:12:43;7.88;;;5.43;;
62880;SDS011;48969;49.934;8.596;2023-05-29T05:15:08;8.63;;;5.30;;
62880;SDS011;48969;49.934;8.596;2023-05-29T05:17:34;9.70;;;5.55;;
62880;SDS011;48969;49.934;8.596;2023-05-29T05:19:59;8.95;;;5.60;;
62880;SDS011;48969;49.934;8.596;2023-05-29T05:22:25;11.48;;;5.28;;
62880;SDS011;48969;49.934;8.596;2023-05-29T05:24:50;7.93;;;5.45;;
62880;SDS011;48969;49.934;8.596;2023-05-29T05:27:17;10.32;;;5.50;;
62880;SDS011;48969;49.934;8.596;2023-05-29T05:29:43;8.95;;;5.90;;
62880;SDS011;48969;49.934;8.596;2023-05-29T05:32:08;10.55;;;5.53;;
62880;SDS011;48969;49.934;8.596;2023-05-29T05:34:33;9.48;;;5.63;;
62880;SDS011;48969;49.934;8.596;2023-05-29T05:36:59;7.53;;;5.03;;
62880;SDS011;48969;49.934;8.596;2023-05-29T05:39:24;8.13;;;5.63;;
62880;SDS011;48969;49.934;8.596;2023-05-29T05:41:50;10.38;;;5.35;;
62880;SDS011;48969;49.934;8.596;2023-05-29T05:44:15;10.50;;;5.57;;
62880;SDS011;48969;49.934;8.596;2023-05-29T05:46:40;7.80;;;5.22;;
62880;SDS011;48969;49.934;8.596;2023-05-29T05:49:06;9.40;;;5.28;;
62880;SDS011;48969;49.934;8.596;2023-05-29T05:51:32;8.25;;;5.55;;
62880;SDS011;48969;49.934;8.596;2023-05-29T05:53:57;7.72;;;5.40;;
62880;SDS011;48969;49.934;8.596;2023-05-29T05:56:22;7.90;;;5.25;;
62880;SDS011;48969;49.934;8.596;2023-05-29T05:58:47;7.15;;;4.97;;
62880;SDS011;48969;49.934;8.596;2023-05-29T06:01:15;10.90;;;5.78;;
62880;SDS011;48969;49.934;8.596;2023-05-29T06:03:40;6.15;;;4.28;;
62880;SDS011;48969;49.934;8.596;2023-05-29T06:06:05;7.95;;;5.05;;
62880;SDS011;48969;49.934;8.596;2023-05-29T06:08:32;6.30;;;4.35;;
62880;SDS011;48969;49.934;8.596;2023-05-29T06:10:57;7.78;;;4.45;;
62880;SDS011;48969;49.934;8.596;2023-05-29T06:13:22;8.18;;;5.25;;
62880;SDS011;48969;49.934;8.596;2023-05-29T06:15:47;7.70;;;4.93;;
62880;SDS011;48969;49.934;8.596;2023-05-29T06:18:13;9.10;;;4.45;;
62880;SDS011;48969;49.934;8.596;2023-05-29T06:20:38;7.00;;;4.68;;
62880;SDS011;48969;49.934;8.596;2023-05-29T06:23:03;7.55;;;4.60;;
62880;SDS011;48969;49.934;8.596;2023-05-29T06:25:29;5.53;;;4.40;;
62880;SDS011;48969;49.934;8.596;2023-05-29T06:28:00;8.98;;;5.10;;
62880;SDS011;48969;49.934;8.596;2023-05-29T06:30:26;9.27;;;4.90;;
62880;SDS011;48969;49.934;8.596;2023-05-29T06:32:52;12.65;;;5.22;;
62880;SDS011;48969;49.934;8.596;2023-05-29T06:35:17;9.52;;;4.82;;
62880;SDS011;48969;49.934;8.596;2023-05-29T06:37:42;10.43;;;4.88;;
62880;SDS011;48969;49.934;8.596;2023-05-29T06:40:07;7.18;;;4.68;;
62880;SDS011;48969;49.934;8.596;2023-05-29T06:42:33;8.90;;;4.55;;
62880;SDS011;48969;49.934;8.596;2023-05-29T06:44:58;8.45;;;4.32;;
62880;SDS011;48969;49.934;8.596;2023-05-29T06:47:24;8.50;;;4.50;;
62880;SDS011;48969;49.934;8.596;2023-05-29T06:49:49;8.63;;;4.65;;
62880;SDS011;48969;49.934;8.596;2023-05-29T06:52:14;9.40;;;5.45;;
62880;SDS011;48969;49.934;8.596;2023-05-29T06:54:40;9.90;;;4.80;;
62880;SDS011;48969;49.934;8.596;2023-05-29T06:57:06;9.70;;;5.07;;
62880;SDS011;48969;49.934;8.596;2023-05-29T06:59:32;8.60;;;5.25;;
62880;SDS011;48969;49.934;8.596;2023-05-29T07:01:58;8.55;;;5.30;;
62880;SDS011;48969;49.934;8.596;2023-05-29T07:04:23;7.25;;;4.78;;
62880;SDS011;48969;49.934;8.596;2023-05-29T07:06:48;8.38;;;4.45;;
62880;SDS011;48969;49.934;8.596;2023-05-29T07:09:14;7.13;;;4.43;;
62880;SDS011;48969;49.934;8.596;2023-05-29T07:11:39;8.10;;;4.40;;
62880;SDS011;48969;49.934;8.596;2023-05-29T07:14:05;8.63;;;4.63;;
62880;SDS011;48969;49.934;8.596;2023-05-29T07:16:30;6.15;;;4.07;;
62880;SDS011;48969;49.934;8.596;2023-05-29T07:18:55;7.88;;;4.90;;
62880;SDS011;48969;49.934;8.596;2023-05-29T07:21:20;9.88;;;5.00;;
62880;SDS011;48969;49.934;8.596;2023-05-29T07:23:46;7.57;;;4.57;;
62880;SDS011;48969;49.934;8.596;2023-05-29T07:26:11;5.95;;;4.25;;
62880;SDS011;48969;49.934;8.596;2023-05-29T07:28:37;7.57;;;4.30;;
62880;SDS011;48969;49.934;8.596;2023-05-29T07:31:02;7.53;;;4.75;;
62880;SDS011;48969;49.934;8.596;2023-05-29T07:33:27;8.25;;;4.38;;
62880;SDS011;48969;49.934;8.596;2023-05-29T07:35:53;5.75;;;3.85;;
62880;SDS011;48969;49.934;8.596;2023-05-29T07:38:18;6.35;;;4.15;;
62880;SDS011;48969;49.934;8.596;2023-05-29T07:40:43;6.75;;;4.15;;
62880;SDS011;48969;49.934;8.596;2023-05-29T07:43:08;6.68;;;4.07;;
62880;SDS011;48969;49.934;8.596;2023-05-29T07:45:34;6.53;;;4.30;;
62880;SDS011;48969;49.934;8.596;2023-05-29T07:48:00;9.07;;;4.30;;
62880;SDS011;48969;49.934;8.596;2023-05-29T07:50:25;6.75;;;4.10;;
62880;SDS011;48969;49.934;8.596;2023-05-29T07:52:50;6.00;;;4.18;;
62880;SDS011;48969;49.934;8.596;2023-05-29T07:55:15;7.10;;;4.43;;
62880;SDS011;48969;49.934;8.596;2023-05-29T07:57:41;6.05;;;4.15;;
62880;SDS011;48969;49.934;8.596;2023-05-29T08:00:07;8.48;;;4.20;;
62880;SDS011;48969;49.934;8.596;2023-05-29T08:02:33;5.95;;;4.28;;
62880;SDS011;48969;49.934;8.596;2023-05-29T08:04:58;6.63;;;4.00;;
62880;SDS011;48969;49.934;8.596;2023-05-29T08:07:23;7.53;;;3.70;;
62880;SDS011;48969;49.934;8.596;2023-05-29T08:09:48;7.20;;;4.40;;
62880;SDS011;48969;49.934;8.596;2023-05-29T08:12:14;6.38;;;3.67;;
62880;SDS011;48969;49.934;8.596;2023-05-29T08:14:39;7.03;;;4.43;;
62880;SDS011;48969;49.934;8.596;2023-05-29T08:17:05;6.88;;;4.18;;
62880;SDS011;48969;49.934;8.596;2023-05-29T08:19:30;7.90;;;4.20;;
62880;SDS011;48969;49.934;8.596;2023-05-29T08:21:55;8.80;;;4.80;;
62880;SDS011;48969;49.934;8.596;2023-05-29T08:24:20;5.20;;;3.70;;
62880;SDS011;48969;49.934;8.596;2023-05-29T08:26:46;6.70;;;4.38;;
62880;SDS011;48969;49.934;8.596;2023-05-29T08:29:11;13.32;;;5.38;;
62880;SDS011;48969;49.934;8.596;2023-05-29T08:31:37;7.28;;;4.47;;
62880;SDS011;48969;49.934;8.596;2023-05-29T08:34:02;5.55;;;4.00;;
62880;SDS011;48969;49.934;8.596;2023-05-29T08:36:27;8.75;;;4.85;;
62880;SDS011;48969;49.934;8.596;2023-05-29T08:38:53;7.80;;;4.70;;
62880;SDS011;48969;49.934;8.596;2023-05-29T08:41:24;9.45;;;4.95;;
62880;SDS011;48969;49.934;8.596;2023-05-29T08:43:55;8.68;;;4.40;;
62880;SDS011;48969;49.934;8.596;2023-05-29T08:46:22;8.20;;;4.70;;
62880;SDS011;48969;49.934;8.596;2023-05-29T08:48:54;7.55;;;4.32;;
62880;SDS011;48969;49.934;8.596;2023-05-29T08:51:23;6.60;;;4.38;;
62880;SDS011;48969;49.934;8.596;2023-05-29T08:53:54;6.70;;;4.45;;
62880;SDS011;48969;49.934;8.596;2023-05-29T08:56:21;6.85;;;4.13;;
62880;SDS011;48969;49.934;8.596;2023-05-29T08:58:47;8.68;;;4.40;;
62880;SDS011;48969;49.934;8.596;2023-05-29T09:01:13;5.22;;;3.97;;
62880;SDS011;48969;49.934;8.596;2023-05-29T09:03:39;5.65;;;3.97;;
62880;SDS011;48969;49.934;8.596;2023-05-29T09:06:06;7.65;;;4.40;;
62880;SDS011;48969;49.934;8.596;2023-05-29T09:08:33;7.03;;;4.40;;
62880;SDS011;48969;49.934;8.596;2023-05-29T09:10:59;8.18;;;4.53;;
62880;SDS011;48969;49.934;8.596;2023-05-29T09:13:24;6.65;;;4.25;;
62880;SDS011;48969;49.934;8.596;2023-05-29T09:15:49;6.55;;;4.22;;
62880;SDS011;48969;49.934;8.596;2023-05-29T09:18:16;7.18;;;3.78;;
62880;SDS011;48969;49.934;8.596;2023-05-29T09:20:41;7.70;;;4.25;;
62880;SDS011;48969;49.934;8.596;2023-05-29T09:23:07;5.60;;;4.18;;
62880;SDS011;48969;49.934;8.596;2023-05-29T09:25:35;7.35;;;4.15;;
62880;SDS011;48969;49.934;8.596;2023-05-29T09:28:05;6.47;;;4.60;;
62880;SDS011;48969;49.934;8.596;2023-05-29T09:33:09;8.48;;;4.53;;
62880;SDS011;48969;49.934;8.596;2023-05-29T09:35:37;8.30;;;4.18;;
62880;SDS011;48969;49.934;8.596;2023-05-29T09:38:07;5.95;;;3.80;;
62880;SDS011;48969;49.934;8.596;2023-05-29T09:40:37;8.52;;;4.15;;
62880;SDS011;48969;49.934;8.596;2023-05-29T09:43:05;5.40;;;3.97;;
62880;SDS011;48969;49.934;8.596;2023-05-29T09:45:41;6.63;;;4.07;;
62880;SDS011;48969;49.934;8.596;2023-05-29T09:48:08;7.10;;;4.10;;
62880;SDS011;48969;49.934;8.596;2023-05-29T09:50:37;6.13;;;3.85;;
62880;SDS011;48969;49.934;8.596;2023-05-29T09:53:04;6.03;;;4.28;;
62880;SDS011;48969;49.934;8.596;2023-05-29T09:55:45;6.47;;;4.55;;
62880;SDS011;48969;49.934;8.596;2023-05-29T09:58:13;8.63;;;4.65;;
62880;SDS011;48969;49.934;8.596;2023-05-29T10:00:40;8.20;;;4.13;;
62880;SDS011;48969;49.934;8.596;2023-05-29T10:03:07;5.75;;;4.40;;
62880;SDS011;48969;49.934;8.596;2023-05-29T10:05:32;9.98;;;4.60;;
62880;SDS011;48969;49.934;8.596;2023-05-29T10:07:57;6.20;;;4.20;;
62880;SDS011;48969;49.934;8.596;2023-05-29T10:10:26;7.68;;;4.22;;
62880;SDS011;48969;49.934;8.596;2023-05-29T10:12:52;6.93;;;4.03;;
62880;SDS011;48969;49.934;8.596;2023-05-29T10:15:19;6.72;;;3.78;;
62880;SDS011;48969;49.934;8.596;2023-05-29T10:17:52;6.70;;;4.20;;
62880;SDS011;48969;49.934;8.596;2023-05-29T10:20:25;8.18;;;4.10;;
62880;SDS011;48969;49.934;8.596;2023-05-29T10:22:53;6.03;;;3.40;;
62880;SDS011;48969;49.934;8.596;2023-05-29T10:25:21;7.32;;;4.28;;
62880;SDS011;48969;49.934;8.596;2023-05-29T10:27:48;7.10;;;4.25;;
62880;SDS011;48969;49.934;8.596;2023-05-29T10:30:30;8.43;;;4.10;;
62880;SDS011;48969;49.934;8.596;2023-05-29T10:36:14;6.45;;;4.03;;
62880;SDS011;48969;49.934;8.596;2023-05-29T10:38:49;6.68;;;3.80;;
62880;SDS011;48969;49.934;8.596;2023-05-29T10:43:53;8.43;;;4.20;;
62880;SDS011;48969;49.934;8.596;2023-05-29T10:51:45;6.93;;;4.22;;
62880;SDS011;48969;49.934;8.596;2023-05-29T10:54:11;7.90;;;3.75;;
62880;SDS011;48969;49.934;8.596;2023-05-29T10:56:36;7.30;;;3.90;;
62880;SDS011;48969;49.934;8.596;2023-05-29T10:59:02;5.75;;;3.38;;
62880;SDS011;48969;49.934;8.596;2023-05-29T11:01:30;5.75;;;3.60;;
62880;SDS011;48969;49.934;8.596;2023-05-29T11:06:45;7.32;;;3.65;;
62880;SDS011;48969;49.934;8.596;2023-05-29T11:09:26;6.35;;;3.80;;
62880;SDS011;48969;49.934;8.596;2023-05-29T11:12:08;9.90;;;4.25;;
62880;SDS011;48969;49.934;8.596;2023-05-29T11:14:43;6.28;;;3.95;;
62880;SDS011;48969;49.934;8.596;2023-05-29T11:17:28;6.20;;;3.88;;
62880;SDS011;48969;49.934;8.596;2023-05-29T11:19:55;8.68;;;3.88;;
62880;SDS011;48969;49.934;8.596;2023-05-29T11:22:22;11.18;;;3.83;;
62880;SDS011;48969;49.934;8.596;2023-05-29T11:24:52;6.25;;;3.40;;
62880;SDS011;48969;49.934;8.596;2023-05-29T11:27:18;4.78;;;3.28;;
62880;SDS011;48969;49.934;8.596;2023-05-29T11:29:43;5.65;;;3.65;;
62880;SDS011;48969;49.934;8.596;2023-05-29T11:32:12;6.63;;;4.45;;
62880;SDS011;48969;49.934;8.596;2023-05-29T11:34:41;6.38;;;3.42;;
62880;SDS011;48969;49.934;8.596;2023-05-29T11:37:09;5.95;;;3.80;;
62880;SDS011;48969;49.934;8.596;2023-05-29T11:39:36;7.53;;;4.25;;
62880;SDS011;48969;49.934;8.596;2023-05-29T11:42:02;9.88;;;4.20;;
62880;SDS011;48969;49.934;8.596;2023-05-29T11:44:27;5.88;;;3.55;;
62880;SDS011;48969;49.934;8.596;2023-05-29T11:49:46;7.05;;;4.03;;
62880;SDS011;48969;49.934;8.596;2023-05-29T11:52:13;12.77;;;4.70;;
62880;SDS011;48969;49.934;8.596;2023-05-29T11:54:39;8.55;;;4.32;;
62880;SDS011;48969;49.934;8.596;2023-05-29T11:57:05;6.65;;;4.10;;
62880;SDS011;48969;49.934;8.596;2023-05-29T11:59:33;13.45;;;3.85;;
62880;SDS011;48969;49.934;8.596;2023-05-29T12:02:01;9.30;;;4.32;;
62880;SDS011;48969;49.934;8.596;2023-05-29T12:04:27;6.25;;;3.72;;
62880;SDS011;48969;49.934;8.596;2023-05-29T12:06:53;5.35;;;4.22;;
62880;SDS011;48969;49.934;8.596;2023-05-29T12:09:25;6.35;;;3.80;;
62880;SDS011;48969;49.934;8.596;2023-05-29T12:11:51;7.88;;;3.75;;
62880;SDS011;48969;49.934;8.596;2023-05-29T12:14:17;5.90;;;3.55;;
62880;SDS011;48969;49.934;8.596;2023-05-29T12:16:42;6.25;;;3.60;;
62880;SDS011;48969;49.934;8.596;2023-05-29T12:19:07;7.50;;;3.55;;
62880;SDS011;48969;49.934;8.596;2023-05-29T12:21:33;5.47;;;4.03;;
62880;SDS011;48969;49.934;8.596;2023-05-29T12:23:59;6.53;;;3.53;;
62880;SDS011;48969;49.934;8.596;2023-05-29T12:26:25;6.13;;;3.70;;
62880;SDS011;48969;49.934;8.596;2023-05-29T12:28:51;6.85;;;3.65;;
62880;SDS011;48969;49.934;8.596;2023-05-29T12:31:26;5.43;;;3.78;;
62880;SDS011;48969;49.934;8.596;2023-05-29T12:33:59;7.53;;;3.92;;
62880;SDS011;48969;49.934;8.596;2023-05-29T12:36:26;6.55;;;3.67;;
62880;SDS011;48969;49.934;8.596;2023-05-29T12:38:51;5.05;;;3.50;;
62880;SDS011;48969;49.934;8.596;2023-05-29T12:43:48;6.72;;;3.22;;
62880;SDS011;48969;49.934;8.596;2023-05-29T12:46:14;6.78;;;4.20;;
62880;SDS011;48969;49.934;8.596;2023-05-29T12:48:39;17.05;;;4.93;;
62880;SDS011;48969;49.934;8.596;2023-05-29T12:51:06;13.95;;;4.38;;
62880;SDS011;48969;49.934;8.596;2023-05-29T12:53:33;8.32;;;3.33;;
62880;SDS011;48969;49.934;8.596;2023-05-29T12:55:58;6.97;;;3.60;;
62880;SDS011;48969;49.934;8.596;2023-05-29T12:58:24;7.35;;;3.90;;
62880;SDS011;48969;49.934;8.596;2023-05-29T13:00:51;5.35;;;3.47;;
62880;SDS011;48969;49.934;8.596;2023-05-29T13:03:20;7.28;;;3.63;;
62880;SDS011;48969;49.934;8.596;2023-05-29T13:05:48;4.72;;;3.13;;
62880;SDS011;48969;49.934;8.596;2023-05-29T13:08:14;6.72;;;3.30;;
62880;SDS011;48969;49.934;8.596;2023-05-29T13:10:39;5.97;;;3.50;;
62880;SDS011;48969;49.934;8.596;2023-05-29T13:13:04;6.35;;;3.50;;
62880;SDS011;48969;49.934;8.596;2023-05-29T13:15:30;7.63;;;3.35;;
62880;SDS011;48969;49.934;8.596;2023-05-29T13:17:57;4.35;;;3.83;;
62880;SDS011;48969;49.934;8.596;2023-05-29T13:20:23;4.03;;;3.40;;
62880;SDS011;48969;49.934;8.596;2023-05-29T13:22:48;5.00;;;3.70;;
62880;SDS011;48969;49.934;8.596;2023-05-29T13:25:15;4.90;;;3.55;;
62880;SDS011;48969;49.934;8.596;2023-05-29T13:27:43;8.50;;;3.75;;
62880;SDS011;48969;49.934;8.596;2023-05-29T13:30:11;5.70;;;3.75;;
62880;SDS011;48969;49.934;8.596;2023-05-29T13:32:38;5.40;;;3.40;;
62880;SDS011;48969;49.934;8.596;2023-05-29T13:35:03;5.57;;;3.70;;
62880;SDS011;48969;49.934;8.596;2023-05-29T13:37:29;5.60;;;3.80;;
62880;SDS011;48969;49.934;8.596;2023-05-29T13:39:54;7.32;;;3.65;;
62880;SDS011;48969;49.934;8.596;2023-05-29T13:42:20;6.30;;;3.50;;
62880;SDS011;48969;49.934;8.596;2023-05-29T13:44:45;7.60;;;3.90;;
62880;SDS011;48969;49.934;8.596;2023-05-29T13:47:12;5.85;;;3.90;;
62880;SDS011;48969;49.934;8.596;2023-05-29T13:49:37;4.35;;;3.08;;
62880;SDS011;48969;49.934;8.596;2023-05-29T13:52:02;6.00;;;3.50;;
62880;SDS011;48969;49.934;8.596;2023-05-29T13:54:28;7.22;;;4.13;;
62880;SDS011;48969;49.934;8.596;2023-05-29T13:56:56;7.47;;;3.53;;
62880;SDS011;48969;49.934;8.596;2023-05-29T13:59:22;5.72;;;3.72;;
62880;SDS011;48969;49.934;8.596;2023-05-29T14:01:47;5.57;;;3.58;;
62880;SDS011;48969;49.934;8.596;2023-05-29T14:04:12;6.40;;;3.85;;
62880;SDS011;48969;49.934;8.596;2023-05-29T14:06:37;5.72;;;3.83;;
62880;SDS011;48969;49.934;8.596;2023-05-29T14:09:03;5.43;;;3.90;;
62880;SDS011;48969;49.934;8.596;2023-05-29T14:11:28;5.43;;;3.60;;
62880;SDS011;48969;49.934;8.596;2023-05-29T14:13:54;4.90;;;3.60;;
62880;SDS011;48969;49.934;8.596;2023-05-29T14:16:19;9.93;;;4.20;;
62880;SDS011;48969;49.934;8.596;2023-05-29T14:18:45;7.93;;;4.38;;
62880;SDS011;48969;49.934;8.596;2023-05-29T14:21:10;6.30;;;3.47;;
62880;SDS011;48969;49.934;8.596;2023-05-29T14:23:36;6.93;;;3.72;;
62880;SDS011;48969;49.934;8.596;2023-05-29T14:26:02;6.75;;;4.05;;
62880;SDS011;48969;49.934;8.596;2023-05-29T14:28:27;7.07;;;3.80;;
62880;SDS011;48969;49.934;8.596;2023-05-29T14:30:52;7.63;;;4.50;;
62880;SDS011;48969;49.934;8.596;2023-05-29T14:33:18;6.97;;;3.88;;
62880;SDS011;48969;49.934;8.596;2023-05-29T14:35:43;5.35;;;3.90;;
62880;SDS011;48969;49.934;8.596;2023-05-29T14:38:08;6.25;;;3.65;;
62880;SDS011;48969;49.934;8.596;2023-05-29T14:40:34;5.88;;;4.03;;
62880;SDS011;48969;49.934;8.596;2023-05-29T14:43:00;6.72;;;3.85;;
62880;SDS011;48969;49.934;8.596;2023-05-29T14:45:26;6.22;;;4.15;;
62880;SDS011;48969;49.934;8.596;2023-05-29T14:47:51;7.90;;;4.03;;
62880;SDS011;48969;49.934;8.596;2023-05-29T14:50:16;6.65;;;3.83;;
62880;SDS011;48969;49.934;8.596;2023-05-29T14:52:41;9.55;;;4.47;;
62880;SDS011;48969;49.934;8.596;2023-05-29T14:55:07;12.93;;;4.88;;
62880;SDS011;48969;49.934;8.596;2023-05-29T14:57:32;9.98;;;4.38;;
62880;SDS011;48969;49.934;8.596;2023-05-29T14:59:59;7.10;;;4.45;;
62880;SDS011;48969;49.934;8.596;2023-05-29T15:02:25;6.45;;;4.18;;
62880;SDS011;48969;49.934;8.596;2023-05-29T15:04:50;5.22;;;3.78;;
62880;SDS011;48969;49.934;8.596;2023-05-29T15:07:17;7.00;;;3.90;;
62880;SDS011;48969;49.934;8.596;2023-05-29T15:09:42;8.30;;;5.05;;
62880;SDS011;48969;49.934;8.596;2023-05-29T15:12:08;11.52;;;3.80;;
62880;SDS011;48969;49.934;8.596;2023-05-29T15:14:34;6.18;;;4.28;;
62880;SDS011;48969;49.934;8.596;2023-05-29T15:16:59;7.38;;;4.18;;
62880;SDS011;48969;49.934;8.596;2023-05-29T15:19:25;6.57;;;4.05;;